sensor_id;sensor_type;location;lat;lon;timestamp;P1;durP1;ratioP1;P2;durP2;ratioP2
61978;SDS011;47938;48.176;16.414;2022-12-29T00:01:54;16.98;;;8.88;;
61978;SDS011;47938;48.176;16.414;2022-12-29T00:04:20;14.32;;;8.25;;
61978;SDS011;47938;48.176;16.414;2022-12-29T00:06:46;15.38;;;8.50;;
61978;SDS011;47938;48.176;16.414;2022-12-29T00:09:12;13.00;;;7.95;;
61978;SDS011;47938;48.176;16.414;2022-12-29T00:11:39;14.48;;;8.57;;
61978;SDS011;47938;48.176;16.414;2022-12-29T00:14:04;15.38;;;8.73;;
61978;SDS011;47938;48.176;16.414;2022-12-29T00:16:31;14.40;;;8.18;;
61978;SDS011;47938;48.176;16.414;2022-12-29T00:18:58;16.73;;;8.82;;
61978;SDS011;47938;48.176;16.414;2022-12-29T00:21:24;13.35;;;7.90;;
61978;SDS011;47938;48.176;16.414;2022-12-29T00:23:50;11.80;;;8.18;;
61978;SDS011;47938;48.176;16.414;2022-12-29T00:26:16;12.32;;;7.80;;
61978;SDS011;47938;48.176;16.414;2022-12-29T00:28:42;13.35;;;8.18;;
61978;SDS011;47938;48.176;16.414;2022-12-29T00:31:09;10.32;;;7.53;;
61978;SDS011;47938;48.176;16.414;2022-12-29T00:33:37;13.82;;;8.35;;
61978;SDS011;47938;48.176;16.414;2022-12-29T00:36:11;15.15;;;8.70;;
61978;SDS011;47938;48.176;16.414;2022-12-29T00:38:37;13.60;;;8.65;;
61978;SDS011;47938;48.176;16.414;2022-12-29T00:41:07;13.68;;;7.90;;
61978;SDS011;47938;48.176;16.414;2022-12-29T00:43:32;13.88;;;7.85;;
61978;SDS011;47938;48.176;16.414;2022-12-29T00:45:58;14.13;;;8.52;;
61978;SDS011;47938;48.176;16.414;2022-12-29T00:48:24;39.78;;;11.55;;
61978;SDS011;47938;48.176;16.414;2022-12-29T00:50:49;14.75;;;8.25;;
61978;SDS011;47938;48.176;16.414;2022-12-29T00:53:20;15.18;;;8.55;;
61978;SDS011;47938;48.176;16.414;2022-12-29T00:55:45;14.50;;;8.75;;
61978;SDS011;47938;48.176;16.414;2022-12-29T00:58:11;13.20;;;8.20;;
61978;SDS011;47938;48.176;16.414;2022-12-29T01:00:36;18.20;;;8.98;;
61978;SDS011;47938;48.176;16.414;2022-12-29T01:03:02;13.20;;;8.88;;
61978;SDS011;47938;48.176;16.414;2022-12-29T01:05:28;16.15;;;8.75;;
61978;SDS011;47938;48.176;16.414;2022-12-29T01:07:53;16.35;;;9.00;;
61978;SDS011;47938;48.176;16.414;2022-12-29T01:10:19;15.95;;;8.65;;
61978;SDS011;47938;48.176;16.414;2022-12-29T01:12:45;14.55;;;9.23;;
61978;SDS011;47938;48.176;16.414;2022-12-29T01:15:11;17.17;;;10.38;;
61978;SDS011;47938;48.176;16.414;2022-12-29T01:17:38;41.30;;;11.65;;
61978;SDS011;47938;48.176;16.414;2022-12-29T01:20:04;29.90;;;9.57;;
61978;SDS011;47938;48.176;16.414;2022-12-29T01:22:30;18.48;;;9.55;;
61978;SDS011;47938;48.176;16.414;2022-12-29T01:24:55;15.40;;;9.63;;
61978;SDS011;47938;48.176;16.414;2022-12-29T01:27:21;18.85;;;9.00;;
61978;SDS011;47938;48.176;16.414;2022-12-29T01:29:46;19.73;;;9.93;;
61978;SDS011;47938;48.176;16.414;2022-12-29T01:32:12;15.57;;;9.63;;
61978;SDS011;47938;48.176;16.414;2022-12-29T01:34:38;15.23;;;9.52;;
61978;SDS011;47938;48.176;16.414;2022-12-29T01:37:03;16.83;;;9.60;;
61978;SDS011;47938;48.176;16.414;2022-12-29T01:39:29;17.20;;;10.70;;
61978;SDS011;47938;48.176;16.414;2022-12-29T01:41:54;14.88;;;9.70;;
61978;SDS011;47938;48.176;16.414;2022-12-29T01:44:46;17.98;;;10.65;;
61978;SDS011;47938;48.176;16.414;2022-12-29T01:47:51;14.25;;;9.77;;
61978;SDS011;47938;48.176;16.414;2022-12-29T01:50:27;16.60;;;9.68;;
61978;SDS011;47938;48.176;16.414;2022-12-29T01:52:59;22.23;;;10.20;;
61978;SDS011;47938;48.176;16.414;2022-12-29T01:55:32;19.50;;;9.50;;
61978;SDS011;47938;48.176;16.414;2022-12-29T01:58:04;15.80;;;9.45;;
61978;SDS011;47938;48.176;16.414;2022-12-29T02:00:30;15.95;;;10.30;;
61978;SDS011;47938;48.176;16.414;2022-12-29T02:02:56;14.55;;;9.50;;
61978;SDS011;47938;48.176;16.414;2022-12-29T02:08:17;17.50;;;9.93;;
61978;SDS011;47938;48.176;16.414;2022-12-29T02:10:45;13.18;;;9.13;;
61978;SDS011;47938;48.176;16.414;2022-12-29T02:13:14;16.30;;;9.40;;
61978;SDS011;47938;48.176;16.414;2022-12-29T02:18:32;19.60;;;9.73;;
61978;SDS011;47938;48.176;16.414;2022-12-29T02:21:13;12.80;;;8.43;;
61978;SDS011;47938;48.176;16.414;2022-12-29T02:40:53;12.70;;;8.52;;
61978;SDS011;47938;48.176;16.414;2022-12-29T02:43:40;14.13;;;8.75;;
61978;SDS011;47938;48.176;16.414;2022-12-29T02:46:15;13.85;;;9.57;;
61978;SDS011;47938;48.176;16.414;2022-12-29T02:48:57;15.75;;;8.57;;
61978;SDS011;47938;48.176;16.414;2022-12-29T02:51:32;17.10;;;9.95;;
61978;SDS011;47938;48.176;16.414;2022-12-29T02:54:05;11.48;;;7.97;;
61978;SDS011;47938;48.176;16.414;2022-12-29T02:56:31;13.45;;;9.32;;
61978;SDS011;47938;48.176;16.414;2022-12-29T02:58:56;18.48;;;9.85;;
61978;SDS011;47938;48.176;16.414;2022-12-29T03:01:24;14.10;;;8.88;;
61978;SDS011;47938;48.176;16.414;2022-12-29T03:07:20;17.52;;;8.93;;
61978;SDS011;47938;48.176;16.414;2022-12-29T03:12:53;13.45;;;8.48;;
61978;SDS011;47938;48.176;16.414;2022-12-29T03:16:14;20.83;;;9.82;;
61978;SDS011;47938;48.176;16.414;2022-12-29T03:18:21;19.40;;;8.88;;
61978;SDS011;47938;48.176;16.414;2022-12-29T03:20:54;15.27;;;9.05;;
61978;SDS011;47938;48.176;16.414;2022-12-29T03:23:25;17.27;;;10.13;;
61978;SDS011;47938;48.176;16.414;2022-12-29T03:25:52;16.63;;;10.55;;
61978;SDS011;47938;48.176;16.414;2022-12-29T03:28:22;14.70;;;9.35;;
61978;SDS011;47938;48.176;16.414;2022-12-29T03:30:54;15.05;;;8.77;;
61978;SDS011;47938;48.176;16.414;2022-12-29T03:33:23;16.73;;;9.05;;
61978;SDS011;47938;48.176;16.414;2022-12-29T03:35:51;13.27;;;8.50;;
61978;SDS011;47938;48.176;16.414;2022-12-29T03:38:42;13.35;;;9.38;;
61978;SDS011;47938;48.176;16.414;2022-12-29T03:41:13;17.17;;;8.85;;
61978;SDS011;47938;48.176;16.414;2022-12-29T03:43:42;15.95;;;9.35;;
61978;SDS011;47938;48.176;16.414;2022-12-29T03:46:07;14.63;;;9.70;;
61978;SDS011;47938;48.176;16.414;2022-12-29T03:48:33;17.83;;;9.98;;
61978;SDS011;47938;48.176;16.414;2022-12-29T03:50:59;13.68;;;8.68;;
61978;SDS011;47938;48.176;16.414;2022-12-29T03:53:24;15.13;;;9.68;;
61978;SDS011;47938;48.176;16.414;2022-12-29T03:55:50;12.63;;;8.93;;
61978;SDS011;47938;48.176;16.414;2022-12-29T03:58:16;12.77;;;8.73;;
61978;SDS011;47938;48.176;16.414;2022-12-29T04:00:41;16.05;;;9.13;;
61978;SDS011;47938;48.176;16.414;2022-12-29T04:03:07;15.43;;;9.07;;
61978;SDS011;47938;48.176;16.414;2022-12-29T04:05:32;15.68;;;8.95;;
61978;SDS011;47938;48.176;16.414;2022-12-29T04:07:58;16.63;;;8.68;;
61978;SDS011;47938;48.176;16.414;2022-12-29T04:10:24;14.30;;;8.63;;
61978;SDS011;47938;48.176;16.414;2022-12-29T04:12:49;16.08;;;9.43;;
61978;SDS011;47938;48.176;16.414;2022-12-29T04:15:15;15.15;;;9.35;;
61978;SDS011;47938;48.176;16.414;2022-12-29T04:17:41;16.45;;;9.50;;
61978;SDS011;47938;48.176;16.414;2022-12-29T04:20:07;12.98;;;9.23;;
61978;SDS011;47938;48.176;16.414;2022-12-29T04:22:33;16.15;;;9.93;;
61978;SDS011;47938;48.176;16.414;2022-12-29T04:24:59;14.18;;;9.07;;
61978;SDS011;47938;48.176;16.414;2022-12-29T04:27:24;13.90;;;9.18;;
61978;SDS011;47938;48.176;16.414;2022-12-29T04:29:50;15.10;;;9.23;;
61978;SDS011;47938;48.176;16.414;2022-12-29T04:32:15;18.70;;;8.45;;
61978;SDS011;47938;48.176;16.414;2022-12-29T04:34:41;14.55;;;8.98;;
61978;SDS011;47938;48.176;16.414;2022-12-29T04:37:06;12.88;;;8.52;;
61978;SDS011;47938;48.176;16.414;2022-12-29T04:39:32;15.23;;;8.95;;
61978;SDS011;47938;48.176;16.414;2022-12-29T04:41:58;13.32;;;8.93;;
61978;SDS011;47938;48.176;16.414;2022-12-29T04:44:23;15.10;;;9.35;;
61978;SDS011;47938;48.176;16.414;2022-12-29T04:46:49;12.32;;;8.80;;
61978;SDS011;47938;48.176;16.414;2022-12-29T04:49:14;13.98;;;8.95;;
61978;SDS011;47938;48.176;16.414;2022-12-29T04:51:40;14.75;;;8.60;;
61978;SDS011;47938;48.176;16.414;2022-12-29T04:54:05;19.27;;;9.40;;
61978;SDS011;47938;48.176;16.414;2022-12-29T04:56:31;13.32;;;9.43;;
61978;SDS011;47938;48.176;16.414;2022-12-29T04:58:57;12.82;;;8.57;;
61978;SDS011;47938;48.176;16.414;2022-12-29T05:01:22;17.13;;;9.00;;
61978;SDS011;47938;48.176;16.414;2022-12-29T05:03:49;14.52;;;9.05;;
61978;SDS011;47938;48.176;16.414;2022-12-29T05:06:15;22.00;;;10.43;;
61978;SDS011;47938;48.176;16.414;2022-12-29T05:08:41;13.15;;;9.02;;
61978;SDS011;47938;48.176;16.414;2022-12-29T05:11:07;16.15;;;9.73;;
61978;SDS011;47938;48.176;16.414;2022-12-29T05:13:32;19.33;;;10.02;;
61978;SDS011;47938;48.176;16.414;2022-12-29T05:15:58;16.40;;;10.02;;
61978;SDS011;47938;48.176;16.414;2022-12-29T05:18:23;17.27;;;9.70;;
61978;SDS011;47938;48.176;16.414;2022-12-29T05:20:49;16.15;;;10.38;;
61978;SDS011;47938;48.176;16.414;2022-12-29T05:23:15;16.63;;;11.15;;
61978;SDS011;47938;48.176;16.414;2022-12-29T05:25:40;15.60;;;10.07;;
61978;SDS011;47938;48.176;16.414;2022-12-29T05:28:07;15.20;;;10.23;;
61978;SDS011;47938;48.176;16.414;2022-12-29T05:30:33;18.95;;;10.73;;
61978;SDS011;47938;48.176;16.414;2022-12-29T05:32:58;16.70;;;10.65;;
61978;SDS011;47938;48.176;16.414;2022-12-29T05:35:24;21.20;;;10.88;;
61978;SDS011;47938;48.176;16.414;2022-12-29T05:37:50;20.00;;;11.63;;
61978;SDS011;47938;48.176;16.414;2022-12-29T05:40:15;15.55;;;10.95;;
61978;SDS011;47938;48.176;16.414;2022-12-29T05:42:41;17.70;;;11.10;;
61978;SDS011;47938;48.176;16.414;2022-12-29T05:45:07;15.13;;;9.95;;
61978;SDS011;47938;48.176;16.414;2022-12-29T05:47:33;16.70;;;10.55;;
61978;SDS011;47938;48.176;16.414;2022-12-29T05:49:58;16.17;;;10.68;;
61978;SDS011;47938;48.176;16.414;2022-12-29T05:52:24;18.08;;;10.02;;
61978;SDS011;47938;48.176;16.414;2022-12-29T05:54:50;17.35;;;10.57;;
61978;SDS011;47938;48.176;16.414;2022-12-29T05:57:15;15.90;;;10.93;;
61978;SDS011;47938;48.176;16.414;2022-12-29T05:59:41;18.30;;;11.13;;
61978;SDS011;47938;48.176;16.414;2022-12-29T06:02:07;19.58;;;11.38;;
61978;SDS011;47938;48.176;16.414;2022-12-29T06:04:32;16.05;;;9.85;;
61978;SDS011;47938;48.176;16.414;2022-12-29T06:06:58;15.38;;;10.63;;
61978;SDS011;47938;48.176;16.414;2022-12-29T06:09:23;20.20;;;11.50;;
61978;SDS011;47938;48.176;16.414;2022-12-29T06:11:49;19.80;;;11.80;;
61978;SDS011;47938;48.176;16.414;2022-12-29T06:14:14;17.67;;;10.63;;
61978;SDS011;47938;48.176;16.414;2022-12-29T06:16:40;20.13;;;11.80;;
61978;SDS011;47938;48.176;16.414;2022-12-29T06:19:06;17.67;;;11.02;;
61978;SDS011;47938;48.176;16.414;2022-12-29T06:21:31;15.02;;;10.45;;
61978;SDS011;47938;48.176;16.414;2022-12-29T06:23:57;21.92;;;11.38;;
61978;SDS011;47938;48.176;16.414;2022-12-29T06:26:22;18.15;;;12.00;;
61978;SDS011;47938;48.176;16.414;2022-12-29T06:28:48;18.60;;;12.05;;
61978;SDS011;47938;48.176;16.414;2022-12-29T06:31:14;20.02;;;11.90;;
61978;SDS011;47938;48.176;16.414;2022-12-29T06:33:39;19.95;;;12.32;;
61978;SDS011;47938;48.176;16.414;2022-12-29T06:36:05;22.40;;;12.30;;
61978;SDS011;47938;48.176;16.414;2022-12-29T06:38:31;19.33;;;11.88;;
61978;SDS011;47938;48.176;16.414;2022-12-29T06:40:56;20.48;;;13.10;;
61978;SDS011;47938;48.176;16.414;2022-12-29T06:43:22;23.08;;;13.30;;
61978;SDS011;47938;48.176;16.414;2022-12-29T06:45:48;21.08;;;14.20;;
61978;SDS011;47938;48.176;16.414;2022-12-29T06:48:13;29.85;;;14.32;;
61978;SDS011;47938;48.176;16.414;2022-12-29T06:50:39;26.95;;;14.30;;
61978;SDS011;47938;48.176;16.414;2022-12-29T06:53:04;28.70;;;14.93;;
61978;SDS011;47938;48.176;16.414;2022-12-29T06:55:30;28.88;;;14.75;;
61978;SDS011;47938;48.176;16.414;2022-12-29T06:57:56;26.52;;;14.93;;
61978;SDS011;47938;48.176;16.414;2022-12-29T07:00:22;30.17;;;15.30;;
61978;SDS011;47938;48.176;16.414;2022-12-29T07:02:49;28.42;;;15.00;;
61978;SDS011;47938;48.176;16.414;2022-12-29T07:05:15;30.77;;;15.75;;
61978;SDS011;47938;48.176;16.414;2022-12-29T07:07:40;30.33;;;15.90;;
61978;SDS011;47938;48.176;16.414;2022-12-29T07:10:06;26.25;;;15.40;;
61978;SDS011;47938;48.176;16.414;2022-12-29T07:12:32;33.40;;;16.15;;
61978;SDS011;47938;48.176;16.414;2022-12-29T07:14:57;32.70;;;15.15;;
61978;SDS011;47938;48.176;16.414;2022-12-29T07:17:23;25.42;;;15.05;;
61978;SDS011;47938;48.176;16.414;2022-12-29T07:19:48;28.70;;;15.52;;
61978;SDS011;47938;48.176;16.414;2022-12-29T07:22:14;27.75;;;15.40;;
61978;SDS011;47938;48.176;16.414;2022-12-29T07:24:40;24.58;;;14.93;;
61978;SDS011;47938;48.176;16.414;2022-12-29T07:27:05;31.30;;;16.52;;
61978;SDS011;47938;48.176;16.414;2022-12-29T07:29:31;25.55;;;15.90;;
61978;SDS011;47938;48.176;16.414;2022-12-29T07:31:56;34.20;;;16.90;;
61978;SDS011;47938;48.176;16.414;2022-12-29T07:34:22;28.52;;;16.55;;
61978;SDS011;47938;48.176;16.414;2022-12-29T07:36:48;26.23;;;15.75;;
61978;SDS011;47938;48.176;16.414;2022-12-29T07:39:13;29.88;;;17.67;;
61978;SDS011;47938;48.176;16.414;2022-12-29T07:41:39;31.13;;;18.08;;
61978;SDS011;47938;48.176;16.414;2022-12-29T07:44:04;29.50;;;17.25;;
61978;SDS011;47938;48.176;16.414;2022-12-29T07:46:30;35.25;;;17.73;;
61978;SDS011;47938;48.176;16.414;2022-12-29T07:48:56;30.88;;;17.65;;
61978;SDS011;47938;48.176;16.414;2022-12-29T07:51:21;32.35;;;18.65;;
61978;SDS011;47938;48.176;16.414;2022-12-29T07:53:47;39.28;;;18.08;;
61978;SDS011;47938;48.176;16.414;2022-12-29T07:56:12;31.40;;;18.50;;
61978;SDS011;47938;48.176;16.414;2022-12-29T07:58:38;42.38;;;18.27;;
61978;SDS011;47938;48.176;16.414;2022-12-29T08:01:03;35.03;;;17.90;;
61978;SDS011;47938;48.176;16.414;2022-12-29T08:03:29;35.35;;;17.30;;
61978;SDS011;47938;48.176;16.414;2022-12-29T08:05:56;37.03;;;18.27;;
61978;SDS011;47938;48.176;16.414;2022-12-29T08:08:21;38.20;;;18.15;;
61978;SDS011;47938;48.176;16.414;2022-12-29T08:10:47;33.58;;;16.88;;
61978;SDS011;47938;48.176;16.414;2022-12-29T08:13:13;35.90;;;18.10;;
61978;SDS011;47938;48.176;16.414;2022-12-29T08:15:38;36.75;;;17.45;;
61978;SDS011;47938;48.176;16.414;2022-12-29T08:18:04;35.72;;;18.40;;
61978;SDS011;47938;48.176;16.414;2022-12-29T08:20:30;35.80;;;17.83;;
61978;SDS011;47938;48.176;16.414;2022-12-29T08:22:55;34.95;;;17.85;;
61978;SDS011;47938;48.176;16.414;2022-12-29T08:25:21;30.25;;;16.13;;
61978;SDS011;47938;48.176;16.414;2022-12-29T08:27:46;31.70;;;16.35;;
61978;SDS011;47938;48.176;16.414;2022-12-29T08:30:12;30.80;;;16.55;;
61978;SDS011;47938;48.176;16.414;2022-12-29T08:32:38;28.25;;;15.57;;
61978;SDS011;47938;48.176;16.414;2022-12-29T08:35:04;27.70;;;15.77;;
61978;SDS011;47938;48.176;16.414;2022-12-29T08:37:31;25.83;;;14.95;;
61978;SDS011;47938;48.176;16.414;2022-12-29T08:39:58;24.33;;;14.82;;
61978;SDS011;47938;48.176;16.414;2022-12-29T08:42:23;31.50;;;15.80;;
61978;SDS011;47938;48.176;16.414;2022-12-29T08:44:49;32.45;;;16.35;;
61978;SDS011;47938;48.176;16.414;2022-12-29T08:47:14;28.60;;;16.77;;
61978;SDS011;47938;48.176;16.414;2022-12-29T08:49:40;28.90;;;17.17;;
61978;SDS011;47938;48.176;16.414;2022-12-29T08:52:07;25.90;;;17.35;;
61978;SDS011;47938;48.176;16.414;2022-12-29T08:54:32;32.78;;;17.42;;
61978;SDS011;47938;48.176;16.414;2022-12-29T08:56:58;30.60;;;17.90;;
61978;SDS011;47938;48.176;16.414;2022-12-29T08:59:24;28.08;;;16.50;;
61978;SDS011;47938;48.176;16.414;2022-12-29T09:01:49;27.88;;;17.17;;
61978;SDS011;47938;48.176;16.414;2022-12-29T09:04:15;29.70;;;17.63;;
61978;SDS011;47938;48.176;16.414;2022-12-29T09:06:41;28.40;;;17.35;;
61978;SDS011;47938;48.176;16.414;2022-12-29T09:09:06;27.50;;;17.23;;
61978;SDS011;47938;48.176;16.414;2022-12-29T09:11:32;30.08;;;17.02;;
61978;SDS011;47938;48.176;16.414;2022-12-29T09:13:58;30.85;;;17.48;;
61978;SDS011;47938;48.176;16.414;2022-12-29T09:16:24;29.73;;;18.40;;
61978;SDS011;47938;48.176;16.414;2022-12-29T09:18:50;28.23;;;16.83;;
61978;SDS011;47938;48.176;16.414;2022-12-29T09:21:15;35.13;;;18.25;;
61978;SDS011;47938;48.176;16.414;2022-12-29T09:23:41;31.92;;;17.55;;
61978;SDS011;47938;48.176;16.414;2022-12-29T09:26:07;29.88;;;17.13;;
61978;SDS011;47938;48.176;16.414;2022-12-29T09:28:33;29.10;;;16.13;;
61978;SDS011;47938;48.176;16.414;2022-12-29T09:30:59;27.42;;;16.55;;
61978;SDS011;47938;48.176;16.414;2022-12-29T09:33:25;34.42;;;17.17;;
61978;SDS011;47938;48.176;16.414;2022-12-29T09:35:55;27.42;;;15.85;;
61978;SDS011;47938;48.176;16.414;2022-12-29T09:38:23;31.00;;;16.77;;
61978;SDS011;47938;48.176;16.414;2022-12-29T09:41:00;26.70;;;15.82;;
61978;SDS011;47938;48.176;16.414;2022-12-29T09:46:35;32.70;;;17.40;;
61978;SDS011;47938;48.176;16.414;2022-12-29T09:51:41;30.50;;;16.90;;
61978;SDS011;47938;48.176;16.414;2022-12-29T09:54:22;29.83;;;16.70;;
61978;SDS011;47938;48.176;16.414;2022-12-29T09:56:52;25.48;;;15.80;;
61978;SDS011;47938;48.176;16.414;2022-12-29T09:59:19;29.77;;;16.73;;
61978;SDS011;47938;48.176;16.414;2022-12-29T10:01:51;26.23;;;16.95;;
61978;SDS011;47938;48.176;16.414;2022-12-29T10:04:27;29.45;;;16.92;;
61978;SDS011;47938;48.176;16.414;2022-12-29T10:18:38;30.20;;;18.23;;
61978;SDS011;47938;48.176;16.414;2022-12-29T10:26:15;28.05;;;16.77;;
61978;SDS011;47938;48.176;16.414;2022-12-29T10:28:54;29.50;;;17.17;;
61978;SDS011;47938;48.176;16.414;2022-12-29T10:31:23;33.17;;;18.75;;
61978;SDS011;47938;48.176;16.414;2022-12-29T10:33:56;31.45;;;18.17;;
61978;SDS011;47938;48.176;16.414;2022-12-29T10:36:39;31.75;;;17.08;;
61978;SDS011;47938;48.176;16.414;2022-12-29T10:41:46;35.65;;;19.17;;
61978;SDS011;47938;48.176;16.414;2022-12-29T10:44:21;32.15;;;19.60;;
61978;SDS011;47938;48.176;16.414;2022-12-29T10:46:55;32.33;;;19.05;;
61978;SDS011;47938;48.176;16.414;2022-12-29T10:49:28;30.73;;;18.35;;
61978;SDS011;47938;48.176;16.414;2022-12-29T10:51:57;29.73;;;18.13;;
61978;SDS011;47938;48.176;16.414;2022-12-29T10:59:59;35.38;;;20.30;;
61978;SDS011;47938;48.176;16.414;2022-12-29T11:07:49;32.45;;;18.70;;
61978;SDS011;47938;48.176;16.414;2022-12-29T11:13:04;37.95;;;20.98;;
61978;SDS011;47938;48.176;16.414;2022-12-29T11:15:45;34.67;;;20.13;;
61978;SDS011;47938;48.176;16.414;2022-12-29T11:20:59;38.25;;;19.80;;
61978;SDS011;47938;48.176;16.414;2022-12-29T11:23:31;34.03;;;20.27;;
61978;SDS011;47938;48.176;16.414;2022-12-29T11:26:12;52.47;;;21.67;;
61978;SDS011;47938;48.176;16.414;2022-12-29T11:28:41;35.25;;;19.80;;
61978;SDS011;47938;48.176;16.414;2022-12-29T11:31:09;37.53;;;21.27;;
61978;SDS011;47938;48.176;16.414;2022-12-29T11:33:36;31.98;;;20.15;;
61978;SDS011;47938;48.176;16.414;2022-12-29T11:36:16;43.03;;;22.30;;
61978;SDS011;47938;48.176;16.414;2022-12-29T11:38:46;32.17;;;19.88;;
61978;SDS011;47938;48.176;16.414;2022-12-29T11:41:23;34.72;;;20.70;;
61978;SDS011;47938;48.176;16.414;2022-12-29T11:43:51;37.67;;;21.52;;
61978;SDS011;47938;48.176;16.414;2022-12-29T11:46:29;32.72;;;20.42;;
61978;SDS011;47938;48.176;16.414;2022-12-29T11:48:57;34.58;;;20.10;;
61978;SDS011;47938;48.176;16.414;2022-12-29T11:51:25;34.28;;;21.15;;
61978;SDS011;47938;48.176;16.414;2022-12-29T11:54:00;37.67;;;21.13;;
61978;SDS011;47938;48.176;16.414;2022-12-29T11:56:35;36.22;;;22.63;;
61978;SDS011;47938;48.176;16.414;2022-12-29T12:01:54;35.97;;;21.30;;
61978;SDS011;47938;48.176;16.414;2022-12-29T12:04:22;39.80;;;21.50;;
61978;SDS011;47938;48.176;16.414;2022-12-29T12:12:23;31.88;;;20.88;;
61978;SDS011;47938;48.176;16.414;2022-12-29T12:14:56;36.25;;;22.00;;
61978;SDS011;47938;48.176;16.414;2022-12-29T12:17:26;35.28;;;20.63;;
61978;SDS011;47938;48.176;16.414;2022-12-29T12:20:18;36.42;;;20.10;;
61978;SDS011;47938;48.176;16.414;2022-12-29T12:22:58;34.05;;;20.48;;
61978;SDS011;47938;48.176;16.414;2022-12-29T12:25:37;38.03;;;21.83;;
61978;SDS011;47938;48.176;16.414;2022-12-29T12:30:46;33.42;;;19.02;;
61978;SDS011;47938;48.176;16.414;2022-12-29T12:33:20;40.30;;;20.60;;
61978;SDS011;47938;48.176;16.414;2022-12-29T12:38:40;33.08;;;19.92;;
61978;SDS011;47938;48.176;16.414;2022-12-29T12:41:14;36.17;;;19.25;;
61978;SDS011;47938;48.176;16.414;2022-12-29T12:44:06;35.95;;;20.75;;
61978;SDS011;47938;48.176;16.414;2022-12-29T13:00:16;35.60;;;19.42;;
61978;SDS011;47938;48.176;16.414;2022-12-29T13:10:49;33.83;;;21.10;;
61978;SDS011;47938;48.176;16.414;2022-12-29T13:19:00;34.00;;;20.45;;
61978;SDS011;47938;48.176;16.414;2022-12-29T13:32:35;31.08;;;19.70;;
61978;SDS011;47938;48.176;16.414;2022-12-29T13:38:12;33.03;;;20.65;;
61978;SDS011;47938;48.176;16.414;2022-12-29T13:40:45;38.38;;;21.63;;
61978;SDS011;47938;48.176;16.414;2022-12-29T13:43:15;32.35;;;20.75;;
61978;SDS011;47938;48.176;16.414;2022-12-29T13:45:43;37.95;;;21.60;;
61978;SDS011;47938;48.176;16.414;2022-12-29T13:48:20;35.90;;;21.95;;
61978;SDS011;47938;48.176;16.414;2022-12-29T13:50:53;36.67;;;21.10;;
61978;SDS011;47938;48.176;16.414;2022-12-29T13:53:41;40.42;;;22.67;;
61978;SDS011;47938;48.176;16.414;2022-12-29T13:56:21;38.45;;;21.63;;
61978;SDS011;47938;48.176;16.414;2022-12-29T14:04:41;37.22;;;21.75;;
61978;SDS011;47938;48.176;16.414;2022-12-29T14:07:21;49.08;;;22.55;;
61978;SDS011;47938;48.176;16.414;2022-12-29T14:09:47;49.50;;;22.45;;
61978;SDS011;47938;48.176;16.414;2022-12-29T14:12:39;62.17;;;22.05;;
61978;SDS011;47938;48.176;16.414;2022-12-29T14:15:04;42.92;;;22.10;;
61978;SDS011;47938;48.176;16.414;2022-12-29T14:17:44;42.20;;;21.27;;
61978;SDS011;47938;48.176;16.414;2022-12-29T14:20:24;43.60;;;21.27;;
61978;SDS011;47938;48.176;16.414;2022-12-29T14:25:56;40.42;;;21.98;;
61978;SDS011;47938;48.176;16.414;2022-12-29T14:28:38;36.03;;;21.50;;
61978;SDS011;47938;48.176;16.414;2022-12-29T14:36:34;39.75;;;22.00;;
61978;SDS011;47938;48.176;16.414;2022-12-29T14:39:35;32.47;;;20.88;;
61978;SDS011;47938;48.176;16.414;2022-12-29T14:50:03;41.22;;;23.65;;
61978;SDS011;47938;48.176;16.414;2022-12-29T14:52:29;45.35;;;23.52;;
61978;SDS011;47938;48.176;16.414;2022-12-29T14:54:57;39.28;;;23.85;;
61978;SDS011;47938;48.176;16.414;2022-12-29T14:57:37;40.92;;;24.45;;
61978;SDS011;47938;48.176;16.414;2022-12-29T15:02:48;39.70;;;21.80;;
61978;SDS011;47938;48.176;16.414;2022-12-29T15:05:32;39.30;;;23.55;;
61978;SDS011;47938;48.176;16.414;2022-12-29T15:08:10;41.85;;;24.73;;
61978;SDS011;47938;48.176;16.414;2022-12-29T15:10:42;37.90;;;22.52;;
61978;SDS011;47938;48.176;16.414;2022-12-29T15:13:24;39.50;;;22.45;;
61978;SDS011;47938;48.176;16.414;2022-12-29T15:15:58;38.03;;;23.30;;
61978;SDS011;47938;48.176;16.414;2022-12-29T15:18:25;50.22;;;30.90;;
61978;SDS011;47938;48.176;16.414;2022-12-29T15:20:54;47.25;;;27.88;;
61978;SDS011;47938;48.176;16.414;2022-12-29T15:23:29;56.25;;;27.52;;
61978;SDS011;47938;48.176;16.414;2022-12-29T15:26:01;43.13;;;26.15;;
61978;SDS011;47938;48.176;16.414;2022-12-29T15:31:08;36.72;;;20.75;;
61978;SDS011;47938;48.176;16.414;2022-12-29T15:33:41;38.85;;;23.83;;
61978;SDS011;47938;48.176;16.414;2022-12-29T15:36:18;42.88;;;23.42;;
61978;SDS011;47938;48.176;16.414;2022-12-29T15:38:50;44.75;;;25.00;;
61978;SDS011;47938;48.176;16.414;2022-12-29T15:41:34;53.63;;;30.10;;
61978;SDS011;47938;48.176;16.414;2022-12-29T15:46:41;42.40;;;23.73;;
61978;SDS011;47938;48.176;16.414;2022-12-29T15:49:07;45.08;;;25.10;;
61978;SDS011;47938;48.176;16.414;2022-12-29T15:51:35;41.10;;;25.48;;
61978;SDS011;47938;48.176;16.414;2022-12-29T15:54:02;41.00;;;24.92;;
61978;SDS011;47938;48.176;16.414;2022-12-29T15:56:29;45.00;;;24.60;;
61978;SDS011;47938;48.176;16.414;2022-12-29T15:58:56;46.22;;;25.75;;
61978;SDS011;47938;48.176;16.414;2022-12-29T16:03:59;43.92;;;24.52;;
61978;SDS011;47938;48.176;16.414;2022-12-29T16:08:57;50.13;;;26.05;;
61978;SDS011;47938;48.176;16.414;2022-12-29T16:11:29;47.53;;;27.55;;
61978;SDS011;47938;48.176;16.414;2022-12-29T16:13:56;47.30;;;26.58;;
61978;SDS011;47938;48.176;16.414;2022-12-29T16:16:25;43.17;;;24.65;;
61978;SDS011;47938;48.176;16.414;2022-12-29T16:18:53;44.63;;;25.67;;
61978;SDS011;47938;48.176;16.414;2022-12-29T16:21:20;43.85;;;25.02;;
61978;SDS011;47938;48.176;16.414;2022-12-29T16:23:55;41.65;;;23.67;;
61978;SDS011;47938;48.176;16.414;2022-12-29T16:26:25;39.72;;;23.15;;
61978;SDS011;47938;48.176;16.414;2022-12-29T16:28:52;43.30;;;23.77;;
61978;SDS011;47938;48.176;16.414;2022-12-29T16:31:22;44.43;;;23.23;;
61978;SDS011;47938;48.176;16.414;2022-12-29T16:34:09;41.95;;;23.00;;
61978;SDS011;47938;48.176;16.414;2022-12-29T16:36:51;43.08;;;24.38;;
61978;SDS011;47938;48.176;16.414;2022-12-29T16:39:26;41.28;;;23.67;;
61978;SDS011;47938;48.176;16.414;2022-12-29T16:41:56;40.90;;;22.13;;
61978;SDS011;47938;48.176;16.414;2022-12-29T16:49:26;39.17;;;23.00;;
61978;SDS011;47938;48.176;16.414;2022-12-29T16:51:53;37.63;;;23.15;;
61978;SDS011;47938;48.176;16.414;2022-12-29T16:54:21;36.60;;;22.15;;
61978;SDS011;47938;48.176;16.414;2022-12-29T16:56:59;35.85;;;22.50;;
61978;SDS011;47938;48.176;16.414;2022-12-29T16:59:26;38.03;;;21.38;;
61978;SDS011;47938;48.176;16.414;2022-12-29T17:01:57;34.30;;;21.23;;
61978;SDS011;47938;48.176;16.414;2022-12-29T17:04:25;39.25;;;21.63;;
61978;SDS011;47938;48.176;16.414;2022-12-29T17:06:51;33.63;;;21.48;;
61978;SDS011;47938;48.176;16.414;2022-12-29T17:09:17;37.28;;;22.25;;
61978;SDS011;47938;48.176;16.414;2022-12-29T17:11:44;34.00;;;21.05;;